Time;durP1;ratioP1;P1;durP2;ratioP2;P2;SDS_P1;SDS_P2;PMS_P1;PMS_P2;Temp;Humidity;BMP_temperature;BMP_pressure;BME280_temperature;BME280_humidity;BME280_pressure;Samples;Min_cycle;Max_cycle;Signal;HPM_P1;HPM_P2
2023/09/14 00:00:01;;;;;;;14.95;14.10;;;;;;;;;;5037065;28;20511;-62
2023/09/14 00:02:26;;;;;;;14.82;14.00;;;;;;;;;;5040453;28;20029;-62
2023/09/14 00:04:52;;;;;;;14.57;13.75;;;;;;;;;;5039902;28;20033;-63
2023/09/14 00:07:17;;;;;;;18.13;17.05;;;;;;;;;;5018334;28;20029;-63
2023/09/14 00:09:43;;;;;;;15.65;14.77;;;;;;;;;;5038174;28;20055;-62
2023/09/14 00:12:08;;;;;;;13.48;12.63;;;;;;;;;;5039045;28;20032;-63
2023/09/14 00:14:35;;;;;;;14.07;13.27;;;;;;;;;;5034877;28;20028;-62
2023/09/14 00:17:00;;;;;;;13.95;13.15;;;;;;;;;;5037407;28;20056;-58
2023/09/14 00:19:26;;;;;;;14.43;13.63;;;;;;;;;;5034730;28;20456;-63
2023/09/14 00:21:52;;;;;;;15.80;14.90;;;;;;;;;;5034049;28;20041;-63
2023/09/14 00:24:18;;;;;;;23.23;21.98;;;;;;;;;;5036677;28;20052;-58
2023/09/14 00:26:43;;;;;;;19.55;18.42;;;;;;;;;;5035821;28;20060;-62
2023/09/14 00:29:08;;;;;;;16.55;15.63;;;;;;;;;;5036589;28;20044;-63
2023/09/14 00:31:38;;;;;;;16.48;15.55;;;;;;;;;;5040482;28;20191;-62
2023/09/14 00:34:03;;;;;;;15.48;14.60;;;;;;;;;;5037661;28;20025;-63
2023/09/14 00:36:30;;;;;;;16.83;15.90;;;;;;;;;;5024615;28;20062;-62
2023/09/14 00:38:55;;;;;;;18.17;17.13;;;;;;;;;;5037109;28;20068;-63
2023/09/14 00:41:21;;;;;;;17.15;16.20;;;;;;;;;;5034833;28;20188;-58
2023/09/14 00:43:46;;;;;;;20.83;19.70;;;;;;;;;;5036339;28;20032;-62
2023/09/14 00:46:11;;;;;;;21.17;20.00;;;;;;;;;;5037026;28;20076;-62
2023/09/14 00:48:37;;;;;;;26.30;24.90;;;;;;;;;;5038520;28;20041;-62
2023/09/14 00:51:03;;;;;;;19.60;18.48;;;;;;;;;;5035764;28;20071;-63
2023/09/14 00:53:29;;;;;;;19.02;17.98;;;;;;;;;;5019448;28;20026;-58
2023/09/14 00:55:55;;;;;;;20.58;19.45;;;;;;;;;;5037834;28;20171;-63
2023/09/14 00:58:21;;;;;;;21.30;20.15;;;;;;;;;;5034931;28;20136;-63
2023/09/14 01:00:47;;;;;;;20.90;19.77;;;;;;;;;;5022196;28;20029;-62
2023/09/14 01:03:13;;;;;;;24.00;22.55;;;;;;;;;;5037235;28;20124;-63
2023/09/14 01:05:40;;;;;;;20.20;19.10;;;;;;;;;;5038299;28;20241;-59
2023/09/14 01:08:05;;;;;;;21.02;19.83;;;;;;;;;;5035898;28;20037;-58
2023/09/14 01:10:31;;;;;;;23.73;22.38;;;;;;;;;;5037607;28;20029;-59
2023/09/14 01:12:57;;;;;;;23.40;22.15;;;;;;;;;;5034578;28;20569;-63
2023/09/14 01:15:37;;;;;;;24.48;23.17;;;;;;;;;;5034299;28;20076;-63
2023/09/14 01:18:12;;;;;;;23.08;21.83;;;;;;;;;;5037354;28;20045;-63
2023/09/14 01:21:26;;;;;;;24.38;22.98;;;;;;;;;;5037015;28;20455;-64
2023/09/14 01:24:20;;;;;;;21.98;20.77;;;;;;;;;;5032833;28;20399;-59
2023/09/14 01:26:45;;;;;;;23.33;22.08;;;;;;;;;;5040138;28;20384;-63
2023/09/14 01:29:10;;;;;;;26.15;24.75;;;;;;;;;;5037095;28;20037;-64
2023/09/14 01:31:36;;;;;;;26.27;24.90;;;;;;;;;;5023406;28;20358;-63
2023/09/14 01:34:02;;;;;;;27.48;25.63;;;;;;;;;;5035543;28;20041;-64
2023/09/14 01:36:45;;;;;;;26.95;25.55;;;;;;;;;;5037670;28;20132;-64
2023/09/14 01:39:12;;;;;;;28.08;26.58;;;;;;;;;;5036163;28;20077;-64
2023/09/14 01:41:39;;;;;;;28.17;26.67;;;;;;;;;;5036500;28;20151;-64
2023/09/14 01:44:05;;;;;;;30.98;29.38;;;;;;;;;;5039507;28;20029;-64
2023/09/14 01:46:32;;;;;;;31.08;29.40;;;;;;;;;;5039688;28;20090;-59
2023/09/14 01:48:58;;;;;;;33.38;31.67;;;;;;;;;;5038523;28;20053;-59
2023/09/14 01:51:24;;;;;;;32.40;30.70;;;;;;;;;;5039489;28;20040;-64
2023/09/14 01:53:49;;;;;;;33.10;31.40;;;;;;;;;;5036311;28;20428;-59
2023/09/14 01:56:15;;;;;;;34.20;32.30;;;;;;;;;;5039183;28;20037;-59
2023/09/14 01:58:40;;;;;;;34.72;32.85;;;;;;;;;;5040938;28;20041;-59
2023/09/14 02:01:05;;;;;;;31.27;29.63;;;;;;;;;;5053267;28;20121;-59
2023/09/14 02:03:31;;;;;;;28.63;27.10;;;;;;;;;;5037684;28;20126;-59
2023/09/14 02:06:02;;;;;;;31.63;29.98;;;;;;;;;;5026178;28;20061;-59
2023/09/14 02:08:27;;;;;;;;;;;;;;;;;;5041215;28;20183;-59
2023/09/14 02:10:53;;;;;;;29.13;27.58;;;;;;;;;;5020206;28;20439;-59
2023/09/14 02:13:18;;;;;;;32.22;30.52;;;;;;;;;;5038029;28;20025;-63
2023/09/14 02:15:44;;;;;;;33.08;31.38;;;;;;;;;;5036991;28;20376;-64
2023/09/14 02:18:09;;;;;;;33.83;32.08;;;;;;;;;;5036341;28;20036;-59
2023/09/14 02:20:38;;;;;;;31.35;29.73;;;;;;;;;;5036648;28;20095;-63
2023/09/14 02:23:04;;;;;;;31.08;29.48;;;;;;;;;;5037864;28;20322;-64
2023/09/14 02:25:30;;;;;;;32.85;31.10;;;;;;;;;;5034972;28;20028;-59
2023/09/14 02:27:55;;;;;;;30.25;28.65;;;;;;;;;;5039247;28;20025;-59
2023/09/14 02:30:20;;;;;;;29.83;28.27;;;;;;;;;;5038269;28;20652;-58
2023/09/14 02:32:46;;;;;;;28.20;26.70;;;;;;;;;;5036245;28;20033;-59
2023/09/14 02:35:11;;;;;;;25.60;24.25;;;;;;;;;;5039203;28;20483;-59
2023/09/14 02:37:36;;;;;;;21.65;20.45;;;;;;;;;;5037741;28;20420;-64
2023/09/14 02:40:06;;;;;;;24.55;23.25;;;;;;;;;;5025420;28;20033;-63
2023/09/14 02:42:31;;;;;;;26.25;24.85;;;;;;;;;;5039607;28;20442;-59
2023/09/14 02:44:57;;;;;;;25.13;23.80;;;;;;;;;;5037167;28;20108;-59
2023/09/14 02:47:22;;;;;;;22.95;21.25;;;;;;;;;;5041577;28;20041;-59
2023/09/14 02:49:47;;;;;;;22.73;21.48;;;;;;;;;;5039459;28;20128;-59
2023/09/14 02:52:13;;;;;;;21.15;20.00;;;;;;;;;;5040090;28;20033;-59
2023/09/14 02:54:38;;;;;;;19.67;18.60;;;;;;;;;;5053922;28;20025;-59
2023/09/14 02:57:04;;;;;;;22.80;21.55;;;;;;;;;;5038597;28;20036;-63
2023/09/14 02:59:29;;;;;;;22.92;21.67;;;;;;;;;;5038552;28;20036;-59
2023/09/14 03:01:54;;;;;;;21.98;20.77;;;;;;;;;;5020262;28;20037;-59
2023/09/14 03:04:20;;;;;;;21.25;20.08;;;;;;;;;;5035011;28;20072;-60
2023/09/14 03:06:45;;;;;;;23.80;22.13;;;;;;;;;;5041516;28;20025;-60
2023/09/14 03:09:11;;;;;;;21.65;20.45;;;;;;;;;;5038417;28;20039;-59
2023/09/14 03:11:36;;;;;;;20.52;19.35;;;;;;;;;;5035200;28;20025;-60
2023/09/14 03:14:01;;;;;;;20.25;19.15;;;;;;;;;;5023759;28;20716;-60
2023/09/14 03:16:27;;;;;;;20.42;19.30;;;;;;;;;;5039945;28;20068;-60
2023/09/14 03:18:52;;;;;;;18.10;17.10;;;;;;;;;;5038644;28;20367;-60
2023/09/14 03:21:26;;;;;;;19.27;18.17;;;;;;;;;;5040053;28;20396;-60
2023/09/14 03:23:51;;;;;;;17.92;16.92;;;;;;;;;;5039121;28;20041;-65
2023/09/14 03:26:17;;;;;;;18.90;17.80;;;;;;;;;;5036264;28;20107;-60
2023/09/14 03:28:43;;;;;;;19.40;18.30;;;;;;;;;;5036866;28;20083;-65
2023/09/14 03:31:09;;;;;;;19.15;18.13;;;;;;;;;;5036963;28;20321;-60
2023/09/14 03:33:34;;;;;;;19.10;18.05;;;;;;;;;;5039271;28;20021;-60
2023/09/14 03:36:01;;;;;;;19.98;18.88;;;;;;;;;;5039247;28;20036;-59
2023/09/14 03:38:27;;;;;;;21.88;20.50;;;;;;;;;;5037314;28;20128;-60
2023/09/14 03:40:52;;;;;;;18.13;17.05;;;;;;;;;;5037928;28;20480;-60
2023/09/14 03:43:17;;;;;;;18.70;17.70;;;;;;;;;;5037907;28;20037;-64
2023/09/14 03:45:43;;;;;;;19.20;18.10;;;;;;;;;;5038372;28;20072;-64
2023/09/14 03:48:08;;;;;;;20.23;19.00;;;;;;;;;;5037566;28;20572;-60
2023/09/14 03:50:33;;;;;;;19.00;17.90;;;;;;;;;;5037899;28;20525;-60
2023/09/14 03:53:01;;;;;;;20.80;19.70;;;;;;;;;;5038112;28;20491;-59
2023/09/14 03:55:26;;;;;;;19.40;18.33;;;;;;;;;;5036797;28;20037;-64
2023/09/14 03:57:51;;;;;;;21.08;19.95;;;;;;;;;;5037852;28;20044;-65
2023/09/14 04:00:17;;;;;;;19.92;18.83;;;;;;;;;;5034958;28;20121;-65
2023/09/14 04:02:43;;;;;;;19.88;18.77;;;;;;;;;;5037821;28;20124;-66
2023/09/14 04:05:13;;;;;;;19.98;18.88;;;;;;;;;;5037716;28;20052;-65
2023/09/14 04:07:39;;;;;;;20.92;19.73;;;;;;;;;;5035156;28;20029;-60
2023/09/14 04:10:06;;;;;;;22.90;21.60;;;;;;;;;;5037045;28;20119;-60
2023/09/14 04:12:31;;;;;;;21.50;20.30;;;;;;;;;;5037743;28;20032;-64
2023/09/14 04:14:57;;;;;;;23.83;22.52;;;;;;;;;;5036648;28;20383;-65
2023/09/14 04:17:22;;;;;;;24.75;23.45;;;;;;;;;;5037720;28;20029;-65
2023/09/14 04:19:48;;;;;;;30.70;29.10;;;;;;;;;;5038658;28;20451;-64
2023/09/14 04:22:13;;;;;;;30.33;28.58;;;;;;;;;;5022523;28;20028;-60
2023/09/14 04:24:38;;;;;;;35.35;33.42;;;;;;;;;;5024290;28;20044;-65
2023/09/14 04:27:04;;;;;;;36.13;34.25;;;;;;;;;;5034948;28;20128;-60
2023/09/14 04:29:32;;;;;;;33.80;32.08;;;;;;;;;;5037783;28;20048;-63
2023/09/14 04:31:58;;;;;;;36.13;34.22;;;;;;;;;;5034611;28;20484;-60
2023/09/14 04:34:24;;;;;;;39.70;37.70;;;;;;;;;;5037026;28;20030;-65
2023/09/14 04:36:49;;;;;;;37.90;35.90;;;;;;;;;;5035870;28;20132;-65
2023/09/14 04:39:15;;;;;;;35.05;33.25;;;;;;;;;;5037415;28;20128;-65
2023/09/14 04:41:40;;;;;;;32.58;30.88;;;;;;;;;;5036970;28;20040;-65
2023/09/14 04:44:06;;;;;;;31.70;30.02;;;;;;;;;;5019426;28;20471;-65
2023/09/14 04:46:31;;;;;;;27.58;26.10;;;;;;;;;;5036665;28;20037;-65
2023/09/14 04:48:56;;;;;;;23.20;21.95;;;;;;;;;;5036837;28;20117;-59
2023/09/14 04:51:23;;;;;;;23.38;22.10;;;;;;;;;;5052728;28;20598;-65
2023/09/14 04:53:48;;;;;;;20.60;19.50;;;;;;;;;;5038114;28;20039;-65
2023/09/14 04:56:14;;;;;;;21.05;19.90;;;;;;;;;;5038046;28;20033;-64
2023/09/14 04:58:39;;;;;;;20.60;19.45;;;;;;;;;;5037999;28;20064;-66
2023/09/14 05:01:05;;;;;;;21.92;20.65;;;;;;;;;;5019444;28;20048;-66
2023/09/14 05:03:31;;;;;;;23.77;22.48;;;;;;;;;;5036905;28;20025;-65
2023/09/14 05:05:56;;;;;;;27.05;25.55;;;;;;;;;;5035615;28;20120;-66
2023/09/14 05:08:22;;;;;;;33.15;31.38;;;;;;;;;;5036668;28;20356;-64
2023/09/14 05:10:51;;;;;;;19.73;18.65;;;;;;;;;;5037240;28;20049;-64
2023/09/14 05:13:20;;;;;;;20.80;19.67;;;;;;;;;;5037225;28;20476;-64
2023/09/14 05:15:46;;;;;;;20.48;19.38;;;;;;;;;;5036495;28;20076;-64
2023/09/14 05:18:11;;;;;;;18.65;17.65;;;;;;;;;;5040529;28;20064;-64
2023/09/14 05:20:41;;;;;;;18.70;17.67;;;;;;;;;;5042314;28;20029;-66
2023/09/14 05:23:07;;;;;;;22.58;21.33;;;;;;;;;;5039945;28;20460;-60
2023/09/14 05:25:32;;;;;;;27.25;25.80;;;;;;;;;;5041158;28;20120;-60
2023/09/14 05:27:58;;;;;;;29.30;27.70;;;;;;;;;;5042227;28;20037;-59
2023/09/14 05:30:24;;;;;;;26.20;24.80;;;;;;;;;;5038714;28;20043;-66
2023/09/14 05:32:50;;;;;;;27.30;25.88;;;;;;;;;;5048019;28;20048;-63
2023/09/14 05:35:16;;;;;;;24.73;23.35;;;;;;;;;;5042595;28;20033;-59
2023/09/14 05:37:41;;;;;;;26.80;25.40;;;;;;;;;;5040878;28;20112;-65
2023/09/14 05:40:11;;;;;;;27.08;25.42;;;;;;;;;;5042083;28;20119;-65
2023/09/14 05:42:37;;;;;;;31.67;29.80;;;;;;;;;;5042722;28;20032;-64
2023/09/14 05:45:07;;;;;;;28.60;27.10;;;;;;;;;;5041488;28;20037;-64
2023/09/14 05:47:33;;;;;;;35.10;32.95;;;;;;;;;;5027029;28;20052;-59
2023/09/14 05:49:58;;;;;;;36.30;33.95;;;;;;;;;;5043472;28;20036;-59
2023/09/14 05:52:24;;;;;;;36.70;34.78;;;;;;;;;;5027697;28;20052;-65
2023/09/14 05:54:50;;;;;;;31.45;29.75;;;;;;;;;;5042311;28;20171;-59
2023/09/14 05:57:16;;;;;;;38.35;36.35;;;;;;;;;;5040754;28;20036;-60
2023/09/14 05:59:41;;;;;;;36.47;34.40;;;;;;;;;;5015169;28;20091;-65
2023/09/14 06:02:07;;;;;;;41.03;38.92;;;;;;;;;;5026275;28;20048;-60
2023/09/14 06:04:33;;;;;;;34.47;32.67;;;;;;;;;;5040468;28;20029;-59
2023/09/14 06:06:58;;;;;;;34.05;32.30;;;;;;;;;;5011402;28;20037;-59
2023/09/14 06:09:26;;;;;;;31.17;29.52;;;;;;;;;;5042134;28;20344;-59
2023/09/14 06:11:52;;;;;;;33.45;31.73;;;;;;;;;;5043482;28;20043;-61
2023/09/14 06:14:17;;;;;;;30.90;29.25;;;;;;;;;;5024662;28;20021;-59
2023/09/14 06:16:43;;;;;;;27.08;25.60;;;;;;;;;;5041753;28;20545;-59
2023/09/14 06:19:08;;;;;;;34.58;32.75;;;;;;;;;;5040055;28;20037;-59
2023/09/14 06:21:34;;;;;;;34.50;32.70;;;;;;;;;;5038417;28;20044;-59
2023/09/14 06:23:59;;;;;;;31.52;29.77;;;;;;;;;;5037292;28;20037;-59
2023/09/14 06:26:28;;;;;;;28.92;27.38;;;;;;;;;;5037324;28;20037;-59
2023/09/14 06:28:55;;;;;;;28.27;26.77;;;;;;;;;;5039347;28;20672;-59
2023/09/14 06:31:22;;;;;;;32.28;30.23;;;;;;;;;;5041873;28;20040;-59
2023/09/14 06:33:49;;;;;;;30.10;27.73;;;;;;;;;;5039515;28;20040;-60
2023/09/14 06:36:17;;;;;;;34.33;32.55;;;;;;;;;;5037973;28;20056;-59
2023/09/14 06:38:42;;;;;;;46.03;43.63;;;;;;;;;;5039638;28;20025;-59
2023/09/14 06:41:07;;;;;;;47.47;45.05;;;;;;;;;;5040193;28;20040;-60
2023/09/14 06:43:33;;;;;;;56.38;53.50;;;;;;;;;;5040069;28;20103;-65
2023/09/14 06:45:59;;;;;;;55.28;52.45;;;;;;;;;;5041844;28;20190;-59
2023/09/14 06:48:24;;;;;;;56.53;53.67;;;;;;;;;;5039005;28;20089;-59
2023/09/14 06:50:50;;;;;;;57.63;54.63;;;;;;;;;;5041995;28;20045;-59
2023/09/14 06:53:16;;;;;;;58.53;55.55;;;;;;;;;;5040140;28;20044;-59
2023/09/14 06:55:42;;;;;;;58.55;55.58;;;;;;;;;;5039534;28;20029;-59
2023/09/14 06:58:08;;;;;;;50.85;48.15;;;;;;;;;;5042267;28;20029;-60
2023/09/14 07:00:35;;;;;;;44.95;42.67;;;;;;;;;;5024752;28;20037;-59
2023/09/14 07:03:02;;;;;;;44.30;41.67;;;;;;;;;;5038401;28;20397;-59
2023/09/14 07:05:29;;;;;;;38.63;36.63;;;;;;;;;;5041780;28;20523;-60
2023/09/14 07:07:55;;;;;;;37.17;35.20;;;;;;;;;;5038056;28;20110;-60
2023/09/14 07:10:20;;;;;;;31.95;30.25;;;;;;;;;;5039390;28;20581;-59
2023/09/14 07:12:45;;;;;;;30.58;28.98;;;;;;;;;;5038453;28;20029;-59
2023/09/14 07:15:11;;;;;;;26.35;24.95;;;;;;;;;;5054132;28;20030;-59
2023/09/14 07:17:36;;;;;;;23.50;21.63;;;;;;;;;;5039886;28;20116;-59
2023/09/14 07:20:04;;;;;;;23.77;22.33;;;;;;;;;;5039561;28;20037;-59
2023/09/14 07:22:29;;;;;;;22.60;21.38;;;;;;;;;;5040501;28;20073;-59
2023/09/14 07:24:55;;;;;;;20.40;19.30;;;;;;;;;;5037603;28;20123;-59
2023/09/14 07:27:22;;;;;;;18.60;17.60;;;;;;;;;;5040802;28;20593;-66
2023/09/14 07:29:48;;;;;;;18.48;17.45;;;;;;;;;;5034897;28;20025;-60
2023/09/14 07:32:13;;;;;;;18.02;16.60;;;;;;;;;;5045311;28;20056;-59
2023/09/14 07:34:39;;;;;;;19.13;18.02;;;;;;;;;;5040155;28;20120;-60
2023/09/14 07:37:04;;;;;;;15.30;14.40;;;;;;;;;;5037086;28;20041;-59
2023/09/14 07:39:30;;;;;;;16.35;15.15;;;;;;;;;;5035555;28;20664;-60
2023/09/14 07:41:56;;;;;;;16.40;15.48;;;;;;;;;;5040580;28;20095;-59
2023/09/14 07:44:22;;;;;;;15.52;14.63;;;;;;;;;;5037228;28;20029;-65
2023/09/14 07:46:48;;;;;;;17.85;16.85;;;;;;;;;;5037568;28;20542;-66
2023/09/14 07:49:13;;;;;;;17.67;16.67;;;;;;;;;;5038652;28;20041;-65
2023/09/14 07:51:39;;;;;;;19.33;18.27;;;;;;;;;;5037912;28;20083;-65
2023/09/14 07:54:04;;;;;;;18.50;17.50;;;;;;;;;;5036722;28;20072;-60
2023/09/14 07:56:30;;;;;;;17.65;16.65;;;;;;;;;;5027661;28;20076;-66
2023/09/14 07:58:56;;;;;;;13.98;13.18;;;;;;;;;;5038026;28;20033;-66
2023/09/14 08:01:22;;;;;;;17.35;16.35;;;;;;;;;;5037170;28;20132;-65
2023/09/14 08:03:47;;;;;;;18.17;17.08;;;;;;;;;;5039101;28;20617;-66
2023/09/14 08:06:15;;;;;;;16.27;15.32;;;;;;;;;;5039360;28;20037;-65
2023/09/14 08:08:41;;;;;;;17.50;16.40;;;;;;;;;;5037582;28;20037;-66
2023/09/14 08:11:06;;;;;;;15.00;14.13;;;;;;;;;;5037509;28;20039;-65
2023/09/14 08:13:32;;;;;;;16.50;15.60;;;;;;;;;;5037448;28;20024;-65
2023/09/14 08:16:02;;;;;;;15.15;14.27;;;;;;;;;;5040016;28;20116;-60
2023/09/14 08:18:29;;;;;;;15.02;14.13;;;;;;;;;;5037571;28;20033;-59
2023/09/14 08:20:54;;;;;;;13.70;12.90;;;;;;;;;;5037363;28;20039;-59
2023/09/14 08:23:20;;;;;;;14.25;13.40;;;;;;;;;;5037594;28;20029;-60
2023/09/14 08:25:46;;;;;;;14.48;13.57;;;;;;;;;;5037279;28;20063;-59
2023/09/14 08:28:17;;;;;;;15.85;13.95;;;;;;;;;;5038669;28;20036;-59
2023/09/14 08:30:43;;;;;;;16.45;15.43;;;;;;;;;;5036609;28;20427;-60
2023/09/14 08:33:10;;;;;;;15.07;14.10;;;;;;;;;;5039898;28;20044;-59
2023/09/14 08:35:36;;;;;;;22.65;21.45;;;;;;;;;;5043358;28;20036;-59
2023/09/14 08:38:03;;;;;;;14.32;13.43;;;;;;;;;;5037011;28;20028;-60
2023/09/14 08:40:30;;;;;;;32.92;31.20;;;;;;;;;;5037633;28;20033;-60
2023/09/14 08:42:56;;;;;;;14.25;13.45;;;;;;;;;;5035571;28;20485;-66
2023/09/14 08:45:30;;;;;;;15.10;14.20;;;;;;;;;;5034231;28;20024;-67
2023/09/14 08:47:57;;;;;;;36.22;34.33;;;;;;;;;;5017505;28;20041;-66
2023/09/14 08:50:28;;;;;;;40.97;38.88;;;;;;;;;;5036965;28;20032;-66
2023/09/14 08:52:54;;;;;;;51.67;49.05;;;;;;;;;;5034893;28;20480;-66
2023/09/14 08:55:22;;;;;;;65.85;62.50;;;;;;;;;;5037441;28;20052;-67
2023/09/14 08:57:48;;;;;;;47.78;45.38;;;;;;;;;;5035671;28;20040;-60
2023/09/14 09:00:15;;;;;;;34.55;32.75;;;;;;;;;;5035451;28;20059;-66
2023/09/14 09:02:52;;;;;;;60.20;57.20;;;;;;;;;;5033905;28;20048;-66
2023/09/14 09:05:19;;;;;;;68.40;65.00;;;;;;;;;;5036204;28;20404;-66
2023/09/14 09:07:46;;;;;;;90.93;86.43;;;;;;;;;;5035238;28;20041;-66
2023/09/14 09:10:23;;;;;;;69.05;65.55;;;;;;;;;;5036784;28;21091;-66
2023/09/14 09:13:02;;;;;;;136.48;129.68;;;;;;;;;;5037691;28;20047;-66
2023/09/14 09:15:30;;;;;;;128.23;121.82;;;;;;;;;;5017080;28;20040;-67
2023/09/14 09:18:07;;;;;;;139.80;132.90;;;;;;;;;;5037304;28;20596;-67
2023/09/14 09:20:33;;;;;;;135.80;128.98;;;;;;;;;;5037413;28;20029;-59
2023/09/14 09:23:00;;;;;;;148.00;140.65;;;;;;;;;;5035632;28;20048;-60
2023/09/14 09:25:26;;;;;;;119.57;113.63;;;;;;;;;;5034697;28;20037;-60
2023/09/14 09:27:57;;;;;;;133.75;127.15;;;;;;;;;;5023791;28;20029;-67
2023/09/14 09:30:29;;;;;;;119.70;113.80;;;;;;;;;;5035434;28;20115;-67
2023/09/14 09:32:58;;;;;;;156.55;148.73;;;;;;;;;;5036604;28;20039;-67
2023/09/14 09:35:25;;;;;;;139.15;132.23;;;;;;;;;;5039335;28;20045;-68
2023/09/14 09:37:51;;;;;;;128.02;121.68;;;;;;;;;;5035472;28;20507;-67
2023/09/14 09:40:19;;;;;;;155.38;147.63;;;;;;;;;;5037851;28;20037;-60
2023/09/14 09:42:45;;;;;;;124.18;118.05;;;;;;;;;;5037481;28;20053;-60
2023/09/14 09:45:11;;;;;;;144.07;136.98;;;;;;;;;;5034958;28;20376;-67
2023/09/14 09:47:37;;;;;;;71.32;67.75;;;;;;;;;;5037206;28;20029;-67
2023/09/14 09:50:08;;;;;;;81.13;77.05;;;;;;;;;;5036335;28;20033;-66
2023/09/14 09:52:35;;;;;;;63.95;60.70;;;;;;;;;;5038386;28;20037;-60
2023/09/14 09:55:01;;;;;;;78.70;74.57;;;;;;;;;;5035776;28;20108;-60
2023/09/14 09:57:33;;;;;;;69.18;65.70;;;;;;;;;;5035653;28;20109;-60
2023/09/14 09:59:58;;;;;;;71.88;68.10;;;;;;;;;;5016615;28;20034;-59
2023/09/14 10:02:33;;;;;;;77.47;73.63;;;;;;;;;;5038141;28;20371;-60
2023/09/14 10:04:58;;;;;;;73.05;69.25;;;;;;;;;;5041840;28;20036;-67
2023/09/14 10:07:24;;;;;;;76.90;73.07;;;;;;;;;;5039670;28;20525;-66
2023/09/14 10:09:55;;;;;;;80.93;76.88;;;;;;;;;;5039327;28;20037;-66
2023/09/14 10:12:26;;;;;;;73.63;69.97;;;;;;;;;;5043344;28;20083;-60
2023/09/14 10:14:55;;;;;;;76.05;72.28;;;;;;;;;;5060880;28;20060;-67
2023/09/14 10:17:22;;;;;;;73.72;69.90;;;;;;;;;;5040875;28;20036;-66
2023/09/14 10:19:49;;;;;;;62.63;59.50;;;;;;;;;;5039062;28;20029;-66
2023/09/14 10:22:16;;;;;;;69.72;65.63;;;;;;;;;;5042517;28;20093;-67
2023/09/14 10:24:41;;;;;;;76.22;72.07;;;;;;;;;;5038189;28;20519;-67
2023/09/14 10:27:08;;;;;;;71.65;68.07;;;;;;;;;;5041277;28;20041;-67
2023/09/14 10:29:38;;;;;;;68.10;64.70;;;;;;;;;;5042084;28;20565;-60
2023/09/14 10:32:05;;;;;;;76.68;72.85;;;;;;;;;;5040655;28;20037;-59
2023/09/14 10:34:34;;;;;;;84.57;80.43;;;;;;;;;;5043656;28;20024;-60
2023/09/14 10:37:00;;;;;;;81.93;77.88;;;;;;;;;;5041477;28;20107;-60
2023/09/14 10:39:26;;;;;;;93.68;88.60;;;;;;;;;;5034566;28;20167;-61
2023/09/14 10:41:52;;;;;;;86.00;81.75;;;;;;;;;;5040009;28;20041;-62
2023/09/14 10:44:17;;;;;;;85.85;81.43;;;;;;;;;;5038482;28;20033;-67
2023/09/14 10:46:45;;;;;;;82.88;78.78;;;;;;;;;;5039620;28;20033;-68
2023/09/14 10:49:10;;;;;;;51.33;48.75;;;;;;;;;;5040182;28;20041;-66
2023/09/14 10:51:36;;;;;;;67.53;64.20;;;;;;;;;;5039035;28;20040;-67
2023/09/14 10:54:02;;;;;;;38.28;36.22;;;;;;;;;;5038618;28;20033;-68
2023/09/14 10:56:31;;;;;;;50.53;47.92;;;;;;;;;;5037568;28;20037;-60
2023/09/14 10:58:57;;;;;;;41.13;39.03;;;;;;;;;;5042574;28;20499;-60
2023/09/14 11:01:27;;;;;;;80.13;76.18;;;;;;;;;;5042217;28;20037;-60
2023/09/14 11:04:14;;;;;;;45.10;42.80;;;;;;;;;;5021511;28;20118;-60
2023/09/14 11:06:54;;;;;;;36.95;35.00;;;;;;;;;;5038603;28;20106;-60
2023/09/14 11:09:23;;;;;;;49.97;47.45;;;;;;;;;;5036730;28;20025;-60
2023/09/14 11:11:52;;;;;;;55.90;53.10;;;;;;;;;;5039983;28;20106;-60
2023/09/14 11:14:20;;;;;;;63.28;60.13;;;;;;;;;;5035997;28;20034;-60
2023/09/14 11:16:59;;;;;;;64.00;60.78;;;;;;;;;;5036893;28;20033;-67
2023/09/14 11:19:30;;;;;;;48.00;45.58;;;;;;;;;;5052541;28;20025;-61
2023/09/14 11:22:15;;;;;;;68.72;65.30;;;;;;;;;;5036151;28;20042;-60
2023/09/14 11:24:41;;;;;;;56.13;53.33;;;;;;;;;;5034629;28;20037;-60
2023/09/14 11:27:07;;;;;;;51.28;48.67;;;;;;;;;;5037056;28;20084;-61
2023/09/14 11:29:33;;;;;;;95.28;90.57;;;;;;;;;;5035899;28;20048;-61
2023/09/14 11:32:01;;;;;;;119.05;113.10;;;;;;;;;;5037239;28;20029;-61
2023/09/14 11:34:28;;;;;;;36.38;34.25;;;;;;;;;;5036680;28;20036;-61
2023/09/14 11:36:57;;;;;;;42.65;40.35;;;;;;;;;;5036374;28;20068;-61
2023/09/14 11:39:23;;;;;;;36.30;34.45;;;;;;;;;;5037961;28;20033;-61
2023/09/14 11:41:48;;;;;;;41.35;39.17;;;;;;;;;;5037840;28;20353;-61
2023/09/14 11:44:14;;;;;;;40.95;38.85;;;;;;;;;;5038574;28;20041;-61
2023/09/14 11:46:42;;;;;;;68.25;64.85;;;;;;;;;;5040106;28;20129;-61
2023/09/14 11:49:08;;;;;;;38.70;36.70;;;;;;;;;;5040246;28;20494;-60
2023/09/14 11:51:34;;;;;;;38.33;36.35;;;;;;;;;;5036545;28;20043;-61
2023/09/14 11:54:02;;;;;;;39.58;37.55;;;;;;;;;;5037743;28;20029;-61
2023/09/14 11:56:29;;;;;;;38.40;36.45;;;;;;;;;;5035968;28;20108;-61
2023/09/14 11:58:58;;;;;;;52.67;50.05;;;;;;;;;;5035854;28;20048;-61
2023/09/14 12:01:27;;;;;;;48.67;46.22;;;;;;;;;;5037179;28;20032;-61
2023/09/14 12:03:54;;;;;;;40.90;38.83;;;;;;;;;;5038831;28;20044;-61
2023/09/14 12:06:20;;;;;;;44.38;41.95;;;;;;;;;;5036833;28;20036;-61
2023/09/14 12:08:49;;;;;;;40.22;38.13;;;;;;;;;;5039696;28;20032;-62
2023/09/14 12:11:15;;;;;;;94.40;89.78;;;;;;;;;;5024391;28;20122;-61
2023/09/14 12:13:50;;;;;;;44.90;42.60;;;;;;;;;;5037310;28;20026;-62
2023/09/14 12:16:23;;;;;;;46.05;43.72;;;;;;;;;;5038540;28;20048;-66
2023/09/14 12:18:49;;;;;;;44.13;41.88;;;;;;;;;;5034534;28;20155;-67
2023/09/14 12:21:15;;;;;;;47.25;44.85;;;;;;;;;;5035343;28;20075;-67
2023/09/14 12:23:44;;;;;;;42.42;40.17;;;;;;;;;;5037424;28;20635;-67
2023/09/14 12:26:15;;;;;;;48.65;46.17;;;;;;;;;;5023162;28;20037;-61
2023/09/14 12:28:53;;;;;;;46.50;44.08;;;;;;;;;;5038429;28;20036;-62
2023/09/14 12:31:20;;;;;;;47.55;45.15;;;;;;;;;;5036282;28;20033;-61
2023/09/14 12:33:46;;;;;;;54.83;52.10;;;;;;;;;;5036904;28;20605;-61
2023/09/14 12:36:12;;;;;;;49.85;47.33;;;;;;;;;;5035131;28;20131;-68
2023/09/14 12:38:38;;;;;;;48.38;45.92;;;;;;;;;;5035776;28;20457;-67
2023/09/14 12:41:05;;;;;;;47.28;44.90;;;;;;;;;;5039207;28;20037;-67
2023/09/14 12:43:32;;;;;;;47.25;44.88;;;;;;;;;;5036782;28;20182;-68
2023/09/14 12:45:58;;;;;;;44.60;42.33;;;;;;;;;;5036223;28;20040;-61
2023/09/14 12:48:27;;;;;;;36.55;34.67;;;;;;;;;;5035038;28;20372;-62
2023/09/14 12:50:53;;;;;;;30.50;28.92;;;;;;;;;;5037064;28;20033;-61
2023/09/14 12:53:18;;;;;;;34.33;32.58;;;;;;;;;;5036574;28;20125;-67
2023/09/14 12:55:46;;;;;;;41.40;39.28;;;;;;;;;;5036728;28;20120;-61
2023/09/14 12:58:11;;;;;;;38.35;36.38;;;;;;;;;;5035275;28;20028;-67
2023/09/14 13:00:38;;;;;;;44.92;42.67;;;;;;;;;;5034371;28;20060;-68
2023/09/14 13:03:08;;;;;;;40.78;38.67;;;;;;;;;;5034752;28;20065;-61
2023/09/14 13:05:34;;;;;;;40.30;38.23;;;;;;;;;;5039901;28;20025;-67
2023/09/14 13:08:01;;;;;;;44.88;42.60;;;;;;;;;;5035501;28;20044;-61
2023/09/14 13:10:27;;;;;;;41.85;39.75;;;;;;;;;;5033432;28;20119;-68
2023/09/14 13:13:11;;;;;;;40.72;38.65;;;;;;;;;;5024649;28;20043;-67
2023/09/14 13:15:39;;;;;;;39.08;36.92;;;;;;;;;;5034089;28;20116;-61
2023/09/14 13:18:07;;;;;;;40.40;38.25;;;;;;;;;;5036966;28;20042;-61
2023/09/14 13:20:35;;;;;;;46.22;43.92;;;;;;;;;;5032950;28;20554;-61
2023/09/14 13:23:01;;;;;;;43.55;41.35;;;;;;;;;;5037270;28;20069;-61
2023/09/14 13:25:27;;;;;;;48.13;45.70;;;;;;;;;;5036955;28;20200;-67
2023/09/14 13:27:57;;;;;;;45.08;42.75;;;;;;;;;;5038645;28;20111;-68
2023/09/14 13:30:23;;;;;;;42.67;40.50;;;;;;;;;;5037004;28;20044;-68
2023/09/14 13:32:49;;;;;;;47.95;45.15;;;;;;;;;;5049107;28;20199;-67
2023/09/14 13:35:15;;;;;;;47.80;45.40;;;;;;;;;;5033276;28;20040;-61
2023/09/14 13:37:42;;;;;;;45.03;42.75;;;;;;;;;;5018938;28;20021;-61
2023/09/14 13:40:18;;;;;;;51.70;49.05;;;;;;;;;;5042159;28;20037;-61
2023/09/14 13:42:57;;;;;;;46.97;44.63;;;;;;;;;;5026787;28;20683;-68
2023/09/14 13:45:23;;;;;;;43.53;41.28;;;;;;;;;;5039344;28;20619;-67
2023/09/14 13:47:50;;;;;;;47.08;44.70;;;;;;;;;;5041499;28;20072;-61
2023/09/14 13:50:16;;;;;;;51.35;48.78;;;;;;;;;;5037056;28;20464;-68
2023/09/14 13:52:41;;;;;;;43.17;40.97;;;;;;;;;;5036521;28;20068;-69
2023/09/14 13:55:07;;;;;;;40.85;38.78;;;;;;;;;;5038890;28;20082;-62
2023/09/14 13:57:35;;;;;;;38.63;36.63;;;;;;;;;;5027386;28;20253;-62
2023/09/14 14:00:05;;;;;;;34.08;32.28;;;;;;;;;;5039030;28;20044;-61
2023/09/14 14:02:31;;;;;;;30.65;29.02;;;;;;;;;;5036842;28;20109;-69
2023/09/14 14:04:56;;;;;;;30.48;28.88;;;;;;;;;;5038942;28;20033;-68
2023/09/14 14:07:22;;;;;;;31.88;30.17;;;;;;;;;;5035612;28;20064;-62
2023/09/14 14:09:47;;;;;;;32.85;31.13;;;;;;;;;;5021872;28;20033;-61
2023/09/14 14:12:13;;;;;;;40.55;38.47;;;;;;;;;;5037060;28;20499;-62
2023/09/14 14:14:38;;;;;;;52.42;49.75;;;;;;;;;;5038206;28;20043;-69